sensor_id;sensor_type;location;lat;lon;timestamp;P1;durP1;ratioP1;P2;durP2;ratioP2
68995;SDS011;56056;48.990;12.146;2023-06-01T00:00:24;932.70;;;864.72;;
68995;SDS011;56056;48.990;12.146;2023-06-01T00:02:50;936.40;;;871.13;;
68995;SDS011;56056;48.990;12.146;2023-06-01T00:05:15;935.45;;;870.45;;
68995;SDS011;56056;48.990;12.146;2023-06-01T00:07:42;914.33;;;849.72;;
68995;SDS011;56056;48.990;12.146;2023-06-01T00:10:09;860.88;;;800.17;;
68995;SDS011;56056;48.990;12.146;2023-06-01T00:12:34;874.38;;;816.35;;
68995;SDS011;56056;48.990;12.146;2023-06-01T00:15:00;895.83;;;833.88;;
68995;SDS011;56056;48.990;12.146;2023-06-01T00:17:26;870.60;;;810.33;;
68995;SDS011;56056;48.990;12.146;2023-06-01T00:19:53;827.40;;;772.40;;
68995;SDS011;56056;48.990;12.146;2023-06-01T00:22:19;820.08;;;767.47;;
68995;SDS011;56056;48.990;12.146;2023-06-01T00:24:47;895.40;;;833.28;;
68995;SDS011;56056;48.990;12.146;2023-06-01T00:27:12;916.97;;;848.13;;
68995;SDS011;56056;48.990;12.146;2023-06-01T00:29:38;952.47;;;881.75;;
68995;SDS011;56056;48.990;12.146;2023-06-01T00:32:04;919.50;;;851.45;;
68995;SDS011;56056;48.990;12.146;2023-06-01T00:34:30;916.22;;;851.67;;
68995;SDS011;56056;48.990;12.146;2023-06-01T00:36:56;882.40;;;821.00;;
68995;SDS011;56056;48.990;12.146;2023-06-01T00:39:22;901.67;;;839.47;;
68995;SDS011;56056;48.990;12.146;2023-06-01T00:41:49;855.78;;;795.88;;
68995;SDS011;56056;48.990;12.146;2023-06-01T00:44:14;843.53;;;786.67;;
68995;SDS011;56056;48.990;12.146;2023-06-01T00:46:40;829.55;;;773.67;;
68995;SDS011;56056;48.990;12.146;2023-06-01T00:49:06;882.65;;;819.28;;
68995;SDS011;56056;48.990;12.146;2023-06-01T00:51:32;865.97;;;806.35;;
68995;SDS011;56056;48.990;12.146;2023-06-01T00:53:58;927.40;;;860.88;;
68995;SDS011;56056;48.990;12.146;2023-06-01T00:56:23;900.25;;;834.28;;
68995;SDS011;56056;48.990;12.146;2023-06-01T00:58:51;888.40;;;822.78;;
68995;SDS011;56056;48.990;12.146;2023-06-01T01:01:16;882.60;;;820.20;;
68995;SDS011;56056;48.990;12.146;2023-06-01T01:03:47;915.67;;;846.90;;
68995;SDS011;56056;48.990;12.146;2023-06-01T01:06:17;893.00;;;827.78;;
68995;SDS011;56056;48.990;12.146;2023-06-01T01:08:53;850.33;;;791.13;;
68995;SDS011;56056;48.990;12.146;2023-06-01T01:11:26;851.88;;;789.53;;
68995;SDS011;56056;48.990;12.146;2023-06-01T01:13:58;832.53;;;773.13;;
68995;SDS011;56056;48.990;12.146;2023-06-01T01:16:27;803.75;;;745.80;;
68995;SDS011;56056;48.990;12.146;2023-06-01T01:18:54;776.33;;;722.70;;
68995;SDS011;56056;48.990;12.146;2023-06-01T01:21:24;849.55;;;789.42;;
68995;SDS011;56056;48.990;12.146;2023-06-01T01:24:05;808.28;;;748.80;;
68995;SDS011;56056;48.990;12.146;2023-06-01T01:29:26;680.45;;;633.13;;
68995;SDS011;56056;48.990;12.146;2023-06-01T01:31:54;711.47;;;664.20;;
68995;SDS011;56056;48.990;12.146;2023-06-01T01:34:21;712.08;;;664.88;;
68995;SDS011;56056;48.990;12.146;2023-06-01T01:36:49;684.38;;;642.45;;
68995;SDS011;56056;48.990;12.146;2023-06-01T01:39:15;748.40;;;699.13;;
68995;SDS011;56056;48.990;12.146;2023-06-01T01:41:41;802.67;;;748.08;;
68995;SDS011;56056;48.990;12.146;2023-06-01T01:44:06;765.53;;;713.10;;
68995;SDS011;56056;48.990;12.146;2023-06-01T01:46:35;800.45;;;744.33;;
68995;SDS011;56056;48.990;12.146;2023-06-01T01:49:07;837.75;;;777.67;;
68995;SDS011;56056;48.990;12.146;2023-06-01T01:51:36;800.95;;;740.58;;
68995;SDS011;56056;48.990;12.146;2023-06-01T01:54:06;826.05;;;765.90;;
68995;SDS011;56056;48.990;12.146;2023-06-01T01:56:32;830.70;;;771.83;;
68995;SDS011;56056;48.990;12.146;2023-06-01T01:59:00;855.65;;;793.15;;
68995;SDS011;56056;48.990;12.146;2023-06-01T02:01:26;838.60;;;776.45;;
68995;SDS011;56056;48.990;12.146;2023-06-01T02:04:00;844.53;;;784.95;;
68995;SDS011;56056;48.990;12.146;2023-06-01T02:06:26;809.72;;;753.92;;
68995;SDS011;56056;48.990;12.146;2023-06-01T02:08:52;820.15;;;761.90;;
68995;SDS011;56056;48.990;12.146;2023-06-01T02:11:18;840.58;;;779.80;;
68995;SDS011;56056;48.990;12.146;2023-06-01T02:13:43;867.08;;;805.55;;
68995;SDS011;56056;48.990;12.146;2023-06-01T02:16:09;823.47;;;768.08;;
68995;SDS011;56056;48.990;12.146;2023-06-01T02:18:35;805.90;;;751.45;;
68995;SDS011;56056;48.990;12.146;2023-06-01T02:21:05;749.33;;;699.00;;
68995;SDS011;56056;48.990;12.146;2023-06-01T02:23:31;721.20;;;672.20;;
68995;SDS011;56056;48.990;12.146;2023-06-01T02:25:56;707.42;;;661.17;;
68995;SDS011;56056;48.990;12.146;2023-06-01T02:28:22;664.30;;;623.67;;
68995;SDS011;56056;48.990;12.146;2023-06-01T02:30:48;588.88;;;555.70;;
68995;SDS011;56056;48.990;12.146;2023-06-01T02:33:13;672.72;;;634.78;;
68995;SDS011;56056;48.990;12.146;2023-06-01T02:35:40;664.70;;;624.70;;
68995;SDS011;56056;48.990;12.146;2023-06-01T02:38:07;649.50;;;609.55;;
68995;SDS011;56056;48.990;12.146;2023-06-01T02:40:33;581.60;;;548.05;;
68995;SDS011;56056;48.990;12.146;2023-06-01T02:42:58;585.40;;;550.35;;
68995;SDS011;56056;48.990;12.146;2023-06-01T02:45:24;650.25;;;609.97;;
68995;SDS011;56056;48.990;12.146;2023-06-01T02:47:50;610.45;;;575.85;;
68995;SDS011;56056;48.990;12.146;2023-06-01T02:50:16;578.40;;;544.90;;
68995;SDS011;56056;48.990;12.146;2023-06-01T02:52:41;587.95;;;556.17;;
68995;SDS011;56056;48.990;12.146;2023-06-01T02:55:08;616.60;;;582.83;;
68995;SDS011;56056;48.990;12.146;2023-06-01T02:57:34;568.55;;;537.67;;
68995;SDS011;56056;48.990;12.146;2023-06-01T03:00:00;571.22;;;539.53;;
68995;SDS011;56056;48.990;12.146;2023-06-01T03:02:25;584.35;;;553.65;;
68995;SDS011;56056;48.990;12.146;2023-06-01T03:04:51;524.97;;;496.70;;
68995;SDS011;56056;48.990;12.146;2023-06-01T03:07:17;518.17;;;490.25;;
68995;SDS011;56056;48.990;12.146;2023-06-01T03:09:43;513.10;;;485.13;;
68995;SDS011;56056;48.990;12.146;2023-06-01T03:12:10;562.47;;;532.83;;
68995;SDS011;56056;48.990;12.146;2023-06-01T03:14:36;563.58;;;532.67;;
68995;SDS011;56056;48.990;12.146;2023-06-01T03:17:02;540.38;;;510.77;;
68995;SDS011;56056;48.990;12.146;2023-06-01T03:19:27;555.88;;;525.28;;
68995;SDS011;56056;48.990;12.146;2023-06-01T03:21:53;531.47;;;503.50;;
68995;SDS011;56056;48.990;12.146;2023-06-01T03:24:19;527.85;;;499.85;;
68995;SDS011;56056;48.990;12.146;2023-06-01T03:26:44;545.85;;;517.08;;
68995;SDS011;56056;48.990;12.146;2023-06-01T03:29:11;645.75;;;607.75;;
68995;SDS011;56056;48.990;12.146;2023-06-01T03:31:37;546.40;;;516.35;;
68995;SDS011;56056;48.990;12.146;2023-06-01T03:34:03;564.53;;;534.00;;
68995;SDS011;56056;48.990;12.146;2023-06-01T03:36:28;552.40;;;522.47;;
68995;SDS011;56056;48.990;12.146;2023-06-01T03:38:54;512.47;;;485.52;;
68995;SDS011;56056;48.990;12.146;2023-06-01T03:41:20;465.98;;;442.95;;
68995;SDS011;56056;48.990;12.146;2023-06-01T03:43:47;476.48;;;451.77;;
68995;SDS011;56056;48.990;12.146;2023-06-01T03:46:14;611.92;;;578.45;;
68995;SDS011;56056;48.990;12.146;2023-06-01T03:48:39;503.10;;;477.98;;
68995;SDS011;56056;48.990;12.146;2023-06-01T03:51:05;651.95;;;615.03;;
68995;SDS011;56056;48.990;12.146;2023-06-01T03:53:30;515.58;;;489.73;;
68995;SDS011;56056;48.990;12.146;2023-06-01T03:55:56;496.00;;;470.90;;
68995;SDS011;56056;48.990;12.146;2023-06-01T03:58:22;493.35;;;468.05;;
68995;SDS011;56056;48.990;12.146;2023-06-01T04:00:48;472.58;;;448.15;;
68995;SDS011;56056;48.990;12.146;2023-06-01T04:03:16;494.48;;;468.73;;
68995;SDS011;56056;48.990;12.146;2023-06-01T04:05:46;506.50;;;479.52;;
68995;SDS011;56056;48.990;12.146;2023-06-01T04:08:14;523.80;;;497.27;;
68995;SDS011;56056;48.990;12.146;2023-06-01T04:10:40;466.02;;;442.65;;
68995;SDS011;56056;48.990;12.146;2023-06-01T04:13:06;502.83;;;477.33;;
68995;SDS011;56056;48.990;12.146;2023-06-01T04:15:32;510.33;;;483.42;;
68995;SDS011;56056;48.990;12.146;2023-06-01T04:17:58;441.92;;;420.23;;
68995;SDS011;56056;48.990;12.146;2023-06-01T04:20:25;472.75;;;449.10;;
68995;SDS011;56056;48.990;12.146;2023-06-01T04:22:51;507.23;;;481.17;;
68995;SDS011;56056;48.990;12.146;2023-06-01T04:25:16;496.98;;;471.88;;
68995;SDS011;56056;48.990;12.146;2023-06-01T04:27:43;505.88;;;480.42;;
68995;SDS011;56056;48.990;12.146;2023-06-01T04:30:10;493.00;;;468.77;;
68995;SDS011;56056;48.990;12.146;2023-06-01T04:32:36;490.40;;;465.23;;
68995;SDS011;56056;48.990;12.146;2023-06-01T04:35:05;526.28;;;498.95;;
68995;SDS011;56056;48.990;12.146;2023-06-01T04:37:33;522.78;;;495.00;;
68995;SDS011;56056;48.990;12.146;2023-06-01T04:39:59;574.47;;;544.13;;
68995;SDS011;56056;48.990;12.146;2023-06-01T04:42:25;641.35;;;604.13;;
68995;SDS011;56056;48.990;12.146;2023-06-01T04:44:50;607.10;;;573.33;;
68995;SDS011;56056;48.990;12.146;2023-06-01T04:47:16;648.10;;;611.22;;
68995;SDS011;56056;48.990;12.146;2023-06-01T04:49:42;638.50;;;601.85;;
68995;SDS011;56056;48.990;12.146;2023-06-01T04:52:08;671.90;;;631.88;;
68995;SDS011;56056;48.990;12.146;2023-06-01T04:54:36;625.63;;;588.00;;
68995;SDS011;56056;48.990;12.146;2023-06-01T04:57:02;710.22;;;667.70;;
68995;SDS011;56056;48.990;12.146;2023-06-01T04:59:31;697.58;;;654.88;;
68995;SDS011;56056;48.990;12.146;2023-06-01T05:01:56;750.70;;;703.63;;
68995;SDS011;56056;48.990;12.146;2023-06-01T05:04:22;683.35;;;642.20;;
68995;SDS011;56056;48.990;12.146;2023-06-01T05:06:48;714.42;;;666.53;;
68995;SDS011;56056;48.990;12.146;2023-06-01T05:09:13;732.85;;;686.30;;
68995;SDS011;56056;48.990;12.146;2023-06-01T05:11:40;761.03;;;708.67;;
68995;SDS011;56056;48.990;12.146;2023-06-01T05:14:06;787.70;;;734.85;;
68995;SDS011;56056;48.990;12.146;2023-06-01T05:16:32;745.47;;;697.30;;
68995;SDS011;56056;48.990;12.146;2023-06-01T05:18:58;764.28;;;713.13;;
68995;SDS011;56056;48.990;12.146;2023-06-01T05:21:24;870.97;;;810.33;;
68995;SDS011;56056;48.990;12.146;2023-06-01T05:23:49;936.83;;;868.95;;
68995;SDS011;56056;48.990;12.146;2023-06-01T05:26:15;935.00;;;867.15;;
68995;SDS011;56056;48.990;12.146;2023-06-01T05:28:42;979.40;;;904.97;;
68995;SDS011;56056;48.990;12.146;2023-06-01T05:31:08;966.78;;;892.85;;
68995;SDS011;56056;48.990;12.146;2023-06-01T05:33:34;1002.58;;;925.95;;
68995;SDS011;56056;48.990;12.146;2023-06-01T05:36:01;980.22;;;901.03;;
68995;SDS011;56056;48.990;12.146;2023-06-01T05:38:27;1024.25;;;943.92;;
68995;SDS011;56056;48.990;12.146;2023-06-01T05:40:53;979.72;;;905.10;;
68995;SDS011;56056;48.990;12.146;2023-06-01T05:43:18;909.80;;;843.63;;
68995;SDS011;56056;48.990;12.146;2023-06-01T05:45:45;865.97;;;808.83;;
68995;SDS011;56056;48.990;12.146;2023-06-01T05:48:13;963.00;;;896.15;;
68995;SDS011;56056;48.990;12.146;2023-06-01T05:50:40;817.78;;;764.97;;
68995;SDS011;56056;48.990;12.146;2023-06-01T05:53:06;896.72;;;839.63;;
68995;SDS011;56056;48.990;12.146;2023-06-01T05:55:32;1005.30;;;932.90;;
68995;SDS011;56056;48.990;12.146;2023-06-01T05:57:57;991.63;;;919.05;;
68995;SDS011;56056;48.990;12.146;2023-06-01T06:00:23;1114.93;;;999.90;;
68995;SDS011;56056;48.990;12.146;2023-06-01T06:02:51;1175.78;;;999.90;;
68995;SDS011;56056;48.990;12.146;2023-06-01T06:05:16;1215.32;;;999.90;;
68995;SDS011;56056;48.990;12.146;2023-06-01T06:07:42;1210.00;;;999.90;;
68995;SDS011;56056;48.990;12.146;2023-06-01T06:10:08;1223.20;;;999.90;;
68995;SDS011;56056;48.990;12.146;2023-06-01T06:12:36;1232.63;;;999.90;;
68995;SDS011;56056;48.990;12.146;2023-06-01T06:15:02;1189.13;;;999.90;;
68995;SDS011;56056;48.990;12.146;2023-06-01T06:17:29;1179.15;;;999.90;;
68995;SDS011;56056;48.990;12.146;2023-06-01T06:19:56;1243.10;;;999.90;;
68995;SDS011;56056;48.990;12.146;2023-06-01T06:22:22;1243.35;;;999.90;;
68995;SDS011;56056;48.990;12.146;2023-06-01T06:24:48;1297.60;;;999.90;;
68995;SDS011;56056;48.990;12.146;2023-06-01T06:27:14;1303.55;;;999.90;;
68995;SDS011;56056;48.990;12.146;2023-06-01T06:29:40;1285.40;;;999.90;;
68995;SDS011;56056;48.990;12.146;2023-06-01T06:32:06;1399.63;;;999.90;;
68995;SDS011;56056;48.990;12.146;2023-06-01T06:34:32;1379.65;;;999.90;;
68995;SDS011;56056;48.990;12.146;2023-06-01T06:37:03;1364.78;;;999.90;;
68995;SDS011;56056;48.990;12.146;2023-06-01T06:39:29;1487.80;;;999.90;;
68995;SDS011;56056;48.990;12.146;2023-06-01T06:41:54;1432.45;;;999.90;;
68995;SDS011;56056;48.990;12.146;2023-06-01T06:44:20;1618.72;;;999.90;;
68995;SDS011;56056;48.990;12.146;2023-06-01T06:46:46;1451.18;;;999.90;;
68995;SDS011;56056;48.990;12.146;2023-06-01T06:49:12;1498.38;;;999.90;;
68995;SDS011;56056;48.990;12.146;2023-06-01T06:51:37;1559.35;;;999.90;;
68995;SDS011;56056;48.990;12.146;2023-06-01T06:54:04;1427.88;;;999.90;;
68995;SDS011;56056;48.990;12.146;2023-06-01T06:56:31;1585.35;;;999.90;;
68995;SDS011;56056;48.990;12.146;2023-06-01T06:58:57;1521.13;;;999.90;;
68995;SDS011;56056;48.990;12.146;2023-06-01T07:01:22;1572.38;;;999.90;;
68995;SDS011;56056;48.990;12.146;2023-06-01T07:03:50;1632.78;;;999.90;;
68995;SDS011;56056;48.990;12.146;2023-06-01T07:06:16;1713.57;;;999.90;;
68995;SDS011;56056;48.990;12.146;2023-06-01T07:08:42;1508.93;;;999.90;;
68995;SDS011;56056;48.990;12.146;2023-06-01T07:11:09;1383.68;;;999.90;;
68995;SDS011;56056;48.990;12.146;2023-06-01T07:13:35;1467.35;;;999.90;;
68995;SDS011;56056;48.990;12.146;2023-06-01T07:16:01;1559.60;;;999.90;;
68995;SDS011;56056;48.990;12.146;2023-06-01T07:18:27;1468.47;;;999.90;;
68995;SDS011;56056;48.990;12.146;2023-06-01T07:20:52;1422.97;;;999.90;;
68995;SDS011;56056;48.990;12.146;2023-06-01T07:23:18;1264.97;;;999.90;;
68995;SDS011;56056;48.990;12.146;2023-06-01T07:25:43;1338.13;;;999.90;;
68995;SDS011;56056;48.990;12.146;2023-06-01T07:28:10;1360.15;;;999.90;;
68995;SDS011;56056;48.990;12.146;2023-06-01T07:30:38;1273.07;;;999.90;;
68995;SDS011;56056;48.990;12.146;2023-06-01T07:33:03;1462.32;;;999.90;;
68995;SDS011;56056;48.990;12.146;2023-06-01T07:35:29;1366.07;;;999.90;;
68995;SDS011;56056;48.990;12.146;2023-06-01T07:37:55;1343.40;;;999.90;;
68995;SDS011;56056;48.990;12.146;2023-06-01T07:40:20;1404.57;;;999.90;;
68995;SDS011;56056;48.990;12.146;2023-06-01T07:42:46;1494.03;;;999.90;;
68995;SDS011;56056;48.990;12.146;2023-06-01T07:45:13;1454.97;;;999.90;;
68995;SDS011;56056;48.990;12.146;2023-06-01T07:47:39;1338.22;;;999.90;;
68995;SDS011;56056;48.990;12.146;2023-06-01T07:50:06;1319.88;;;999.90;;
68995;SDS011;56056;48.990;12.146;2023-06-01T07:52:32;1364.35;;;999.90;;
68995;SDS011;56056;48.990;12.146;2023-06-01T07:54:58;1341.32;;;999.90;;
68995;SDS011;56056;48.990;12.146;2023-06-01T07:57:23;1354.47;;;999.90;;
68995;SDS011;56056;48.990;12.146;2023-06-01T07:59:50;1346.45;;;999.90;;
68995;SDS011;56056;48.990;12.146;2023-06-01T08:02:17;1292.35;;;999.90;;
68995;SDS011;56056;48.990;12.146;2023-06-01T08:04:42;1313.68;;;999.90;;
68995;SDS011;56056;48.990;12.146;2023-06-01T08:07:09;1404.03;;;999.90;;
68995;SDS011;56056;48.990;12.146;2023-06-01T08:09:37;1564.47;;;999.90;;
68995;SDS011;56056;48.990;12.146;2023-06-01T08:12:03;1498.47;;;999.90;;
68995;SDS011;56056;48.990;12.146;2023-06-01T08:14:30;1682.32;;;999.90;;
68995;SDS011;56056;48.990;12.146;2023-06-01T08:16:58;1693.45;;;999.90;;
68995;SDS011;56056;48.990;12.146;2023-06-01T08:19:27;1561.28;;;999.90;;
68995;SDS011;56056;48.990;12.146;2023-06-01T08:21:53;1464.53;;;999.90;;
68995;SDS011;56056;48.990;12.146;2023-06-01T08:24:19;1317.45;;;999.90;;
68995;SDS011;56056;48.990;12.146;2023-06-01T08:26:47;1583.32;;;999.90;;
68995;SDS011;56056;48.990;12.146;2023-06-01T08:29:13;1524.70;;;999.90;;
68995;SDS011;56056;48.990;12.146;2023-06-01T08:31:39;1682.20;;;999.90;;
68995;SDS011;56056;48.990;12.146;2023-06-01T08:34:04;1999.90;;;999.90;;
68995;SDS011;56056;48.990;12.146;2023-06-01T08:36:32;1907.25;;;999.90;;
68995;SDS011;56056;48.990;12.146;2023-06-01T08:38:57;1712.28;;;999.90;;
68995;SDS011;56056;48.990;12.146;2023-06-01T08:41:24;1704.22;;;999.90;;
68995;SDS011;56056;48.990;12.146;2023-06-01T08:43:54;1712.55;;;999.90;;
68995;SDS011;56056;48.990;12.146;2023-06-01T08:46:23;1999.90;;;999.90;;
68995;SDS011;56056;48.990;12.146;2023-06-01T08:48:52;1999.90;;;999.90;;
68995;SDS011;56056;48.990;12.146;2023-06-01T08:51:20;1729.93;;;999.90;;
68995;SDS011;56056;48.990;12.146;2023-06-01T08:53:49;1999.90;;;999.90;;
68995;SDS011;56056;48.990;12.146;2023-06-01T08:56:15;1951.88;;;999.90;;
68995;SDS011;56056;48.990;12.146;2023-06-01T08:58:41;1889.50;;;999.90;;
68995;SDS011;56056;48.990;12.146;2023-06-01T09:01:08;1966.15;;;999.90;;
68995;SDS011;56056;48.990;12.146;2023-06-01T09:03:35;1900.22;;;999.90;;
68995;SDS011;56056;48.990;12.146;2023-06-01T09:06:00;1718.63;;;999.90;;
68995;SDS011;56056;48.990;12.146;2023-06-01T09:08:26;1790.70;;;999.90;;
68995;SDS011;56056;48.990;12.146;2023-06-01T09:10:53;1791.75;;;999.90;;
68995;SDS011;56056;48.990;12.146;2023-06-01T09:13:32;1869.53;;;999.90;;
68995;SDS011;56056;48.990;12.146;2023-06-01T09:15:58;1491.30;;;999.90;;
68995;SDS011;56056;48.990;12.146;2023-06-01T09:18:24;1196.88;;;999.90;;
68995;SDS011;56056;48.990;12.146;2023-06-01T09:20:50;1368.28;;;999.90;;
68995;SDS011;56056;48.990;12.146;2023-06-01T09:23:24;1137.15;;;999.90;;
68995;SDS011;56056;48.990;12.146;2023-06-01T09:26:04;1112.15;;;993.25;;
68995;SDS011;56056;48.990;12.146;2023-06-01T09:28:37;1201.35;;;999.90;;
68995;SDS011;56056;48.990;12.146;2023-06-01T09:31:36;1145.70;;;999.90;;
68995;SDS011;56056;48.990;12.146;2023-06-01T09:34:03;1185.07;;;999.90;;
68995;SDS011;56056;48.990;12.146;2023-06-01T09:36:29;1125.47;;;998.00;;
68995;SDS011;56056;48.990;12.146;2023-06-01T09:38:59;1038.55;;;944.03;;
68995;SDS011;56056;48.990;12.146;2023-06-01T09:41:26;952.80;;;876.08;;
68995;SDS011;56056;48.990;12.146;2023-06-01T09:43:56;1018.50;;;929.20;;
68995;SDS011;56056;48.990;12.146;2023-06-01T09:46:22;979.97;;;898.38;;
68995;SDS011;56056;48.990;12.146;2023-06-01T09:48:48;930.50;;;856.20;;
68995;SDS011;56056;48.990;12.146;2023-06-01T09:51:21;997.80;;;916.28;;
68995;SDS011;56056;48.990;12.146;2023-06-01T09:53:48;966.78;;;889.67;;
68995;SDS011;56056;48.990;12.146;2023-06-01T09:56:13;935.72;;;861.20;;
68995;SDS011;56056;48.990;12.146;2023-06-01T09:58:41;885.28;;;819.70;;
68995;SDS011;56056;48.990;12.146;2023-06-01T10:01:07;925.17;;;855.83;;
68995;SDS011;56056;48.990;12.146;2023-06-01T10:03:33;858.90;;;796.17;;
68995;SDS011;56056;48.990;12.146;2023-06-01T10:06:00;883.97;;;821.88;;
68995;SDS011;56056;48.990;12.146;2023-06-01T10:08:27;844.60;;;785.75;;
68995;SDS011;56056;48.990;12.146;2023-06-01T10:10:53;945.97;;;874.85;;
68995;SDS011;56056;48.990;12.146;2023-06-01T10:13:18;918.40;;;851.13;;
68995;SDS011;56056;48.990;12.146;2023-06-01T10:15:48;926.15;;;857.85;;
68995;SDS011;56056;48.990;12.146;2023-06-01T10:18:15;963.13;;;894.40;;
68995;SDS011;56056;48.990;12.146;2023-06-01T10:20:42;922.97;;;855.08;;
68995;SDS011;56056;48.990;12.146;2023-06-01T10:23:08;944.78;;;876.97;;
68995;SDS011;56056;48.990;12.146;2023-06-01T10:25:35;872.92;;;811.03;;
68995;SDS011;56056;48.990;12.146;2023-06-01T10:28:04;895.13;;;834.17;;
68995;SDS011;56056;48.990;12.146;2023-06-01T10:30:32;921.22;;;856.85;;
68995;SDS011;56056;48.990;12.146;2023-06-01T10:32:59;900.67;;;835.42;;
68995;SDS011;56056;48.990;12.146;2023-06-01T10:38:27;745.38;;;700.33;;
68995;SDS011;56056;48.990;12.146;2023-06-01T10:40:53;514.85;;;485.58;;
68995;SDS011;56056;48.990;12.146;2023-06-01T10:43:57;686.95;;;649.95;;
68995;SDS011;56056;48.990;12.146;2023-06-01T10:46:41;579.88;;;548.45;;
68995;SDS011;56056;48.990;12.146;2023-06-01T10:49:07;430.83;;;407.95;;
68995;SDS011;56056;48.990;12.146;2023-06-01T10:51:33;411.50;;;389.90;;
68995;SDS011;56056;48.990;12.146;2023-06-01T11:02:42;420.20;;;397.05;;
68995;SDS011;56056;48.990;12.146;2023-06-01T11:11:21;678.33;;;640.08;;
68995;SDS011;56056;48.990;12.146;2023-06-01T11:16:38;417.10;;;395.30;;
68995;SDS011;56056;48.990;12.146;2023-06-01T11:19:04;389.98;;;370.92;;
68995;SDS011;56056;48.990;12.146;2023-06-01T11:21:32;467.33;;;443.35;;
68995;SDS011;56056;48.990;12.146;2023-06-01T11:24:01;357.10;;;338.98;;
68995;SDS011;56056;48.990;12.146;2023-06-01T11:26:30;400.95;;;379.92;;
68995;SDS011;56056;48.990;12.146;2023-06-01T11:29:07;462.55;;;439.42;;
68995;SDS011;56056;48.990;12.146;2023-06-01T11:31:39;416.10;;;395.30;;
68995;SDS011;56056;48.990;12.146;2023-06-01T11:34:07;615.97;;;582.00;;
68995;SDS011;56056;48.990;12.146;2023-06-01T11:36:41;517.47;;;491.65;;
68995;SDS011;56056;48.990;12.146;2023-06-01T11:39:20;472.35;;;448.40;;
68995;SDS011;56056;48.990;12.146;2023-06-01T11:41:47;472.88;;;448.30;;
68995;SDS011;56056;48.990;12.146;2023-06-01T11:44:14;475.10;;;451.10;;
68995;SDS011;56056;48.990;12.146;2023-06-01T11:46:50;482.17;;;457.15;;
68995;SDS011;56056;48.990;12.146;2023-06-01T11:49:19;513.25;;;486.38;;
68995;SDS011;56056;48.990;12.146;2023-06-01T11:51:45;505.17;;;478.25;;
68995;SDS011;56056;48.990;12.146;2023-06-01T11:54:11;532.42;;;505.05;;
68995;SDS011;56056;48.990;12.146;2023-06-01T11:56:37;512.47;;;487.98;;
68995;SDS011;56056;48.990;12.146;2023-06-01T11:59:06;567.17;;;535.80;;
68995;SDS011;56056;48.990;12.146;2023-06-01T12:01:36;616.00;;;581.55;;
68995;SDS011;56056;48.990;12.146;2023-06-01T12:04:11;613.38;;;581.53;;
68995;SDS011;56056;48.990;12.146;2023-06-01T12:06:37;614.40;;;581.65;;
68995;SDS011;56056;48.990;12.146;2023-06-01T12:09:03;570.63;;;539.55;;
68995;SDS011;56056;48.990;12.146;2023-06-01T12:11:31;553.28;;;522.95;;
68995;SDS011;56056;48.990;12.146;2023-06-01T12:13:57;583.83;;;552.15;;
68995;SDS011;56056;48.990;12.146;2023-06-01T12:16:23;551.65;;;523.97;;
68995;SDS011;56056;48.990;12.146;2023-06-01T12:18:50;545.53;;;516.67;;
68995;SDS011;56056;48.990;12.146;2023-06-01T12:21:17;542.22;;;513.08;;
68995;SDS011;56056;48.990;12.146;2023-06-01T12:23:43;560.50;;;530.92;;
68995;SDS011;56056;48.990;12.146;2023-06-01T12:26:14;532.05;;;503.83;;
68995;SDS011;56056;48.990;12.146;2023-06-01T12:28:46;546.72;;;515.65;;
68995;SDS011;56056;48.990;12.146;2023-06-01T12:31:13;536.33;;;506.85;;
68995;SDS011;56056;48.990;12.146;2023-06-01T12:33:40;588.83;;;555.28;;
68995;SDS011;56056;48.990;12.146;2023-06-01T12:36:07;639.80;;;601.15;;
68995;SDS011;56056;48.990;12.146;2023-06-01T12:38:40;656.88;;;619.40;;
68995;SDS011;56056;48.990;12.146;2023-06-01T12:41:15;666.72;;;628.58;;
68995;SDS011;56056;48.990;12.146;2023-06-01T12:43:43;614.20;;;579.33;;
68995;SDS011;56056;48.990;12.146;2023-06-01T12:46:16;658.15;;;617.58;;
68995;SDS011;56056;48.990;12.146;2023-06-01T12:48:43;566.50;;;532.85;;
68995;SDS011;56056;48.990;12.146;2023-06-01T12:51:09;541.30;;;508.63;;
68995;SDS011;56056;48.990;12.146;2023-06-01T12:53:35;566.10;;;532.13;;
68995;SDS011;56056;48.990;12.146;2023-06-01T12:56:02;573.35;;;539.67;;
68995;SDS011;56056;48.990;12.146;2023-06-01T12:58:28;584.63;;;551.03;;
68995;SDS011;56056;48.990;12.146;2023-06-01T13:00:53;595.83;;;560.80;;
68995;SDS011;56056;48.990;12.146;2023-06-01T13:03:19;637.17;;;599.38;;
68995;SDS011;56056;48.990;12.146;2023-06-01T13:05:47;617.80;;;582.42;;
68995;SDS011;56056;48.990;12.146;2023-06-01T13:08:14;625.90;;;589.38;;
68995;SDS011;56056;48.990;12.146;2023-06-01T13:10:42;635.35;;;599.42;;
68995;SDS011;56056;48.990;12.146;2023-06-01T13:13:08;641.03;;;603.42;;
68995;SDS011;56056;48.990;12.146;2023-06-01T13:15:34;650.55;;;613.47;;
68995;SDS011;56056;48.990;12.146;2023-06-01T13:18:00;639.25;;;600.95;;
68995;SDS011;56056;48.990;12.146;2023-06-01T13:20:26;599.85;;;563.28;;
68995;SDS011;56056;48.990;12.146;2023-06-01T13:22:52;555.15;;;522.53;;
68995;SDS011;56056;48.990;12.146;2023-06-01T13:25:18;637.22;;;597.35;;
68995;SDS011;56056;48.990;12.146;2023-06-01T13:27:47;583.70;;;549.55;;
68995;SDS011;56056;48.990;12.146;2023-06-01T13:30:13;598.22;;;561.80;;
68995;SDS011;56056;48.990;12.146;2023-06-01T13:32:39;615.33;;;578.00;;
68995;SDS011;56056;48.990;12.146;2023-06-01T13:35:05;636.97;;;599.10;;
68995;SDS011;56056;48.990;12.146;2023-06-01T13:37:31;657.92;;;618.45;;
68995;SDS011;56056;48.990;12.146;2023-06-01T13:39:57;654.28;;;617.28;;
68995;SDS011;56056;48.990;12.146;2023-06-01T13:42:22;644.53;;;607.20;;
68995;SDS011;56056;48.990;12.146;2023-06-01T13:44:49;618.63;;;582.58;;
68995;SDS011;56056;48.990;12.146;2023-06-01T13:47:15;614.83;;;581.15;;
68995;SDS011;56056;48.990;12.146;2023-06-01T13:49:41;543.10;;;513.28;;
68995;SDS011;56056;48.990;12.146;2023-06-01T13:52:07;486.90;;;459.77;;
68995;SDS011;56056;48.990;12.146;2023-06-01T13:54:34;352.92;;;333.00;;
68995;SDS011;56056;48.990;12.146;2023-06-01T13:56:59;387.63;;;362.80;;
68995;SDS011;56056;48.990;12.146;2023-06-01T13:59:27;717.55;;;664.42;;
68995;SDS011;56056;48.990;12.146;2023-06-01T14:01:54;953.80;;;876.78;;
68995;SDS011;56056;48.990;12.146;2023-06-01T14:04:19;697.75;;;655.40;;